Granger, Iowa
Current Conditions -  °F | °C
As of 2:15 AM on Monday 26 Jan 2015 (Local Time) from KIKV Reporting Station
Overcast Overcast  
Wind Chill: 32°   Ceiling: 2100
Heat Index: 32°   Visibility: 10mi
Dew Point: 27°   Wind: 3mph
Humidity: 80%   Direction: 210°SSW
Pressure: 30.02"   Gusts: NA
Location:  41.76°N, 93.82°W
Report Text: KIKV 260815Z AUTO 21003KT 10SM OVC021 M00/M03 A3002 RMK AO2
Loading
Personal Weather Stations






























Interactive Weather Map New forecast layout! Learn more

10-Day Weather Forecast

Advertisements
Track Severe Weather on mobile